Terminal Aerodrome Forecast
Issued by NWS Pittsburgh, PA

Current Version | Previous Version | Graphics & Text | Print | Product List | Glossary On
Versions: 1 2 3 4 5 6 7 8 9 10 11 12 13 14 15 16 17 18 19 20 21 22 23 24 25 26 27 28 29 30 31 32 33
843
FTUS41 KPBZ 302329
TAFPIT
TAF
KPIT 302329Z 0100/0206 21005KT P6SM VCSH OVC025
      TEMPO 0100/0103 29012G22KT 3SM SHRA OVC015
     FM010400 26008KT P6SM VCSH BKN050
     FM010600 28008KT P6SM SCT090
     FM011100 24009KT P6SM BKN030
     FM011700 25012G21KT P6SM BKN035=

USA.gov is the U.S. government's official web portal to all federal, state and local government web resources and services.